createdAt,value
2023-03-26T00:00:00.154Z,10.63
2023-03-26T00:01:07.289Z,10.63
2023-03-26T00:02:10.197Z,10.59
2023-03-26T00:03:14.088Z,10.56
2023-03-26T00:04:29.099Z,10.55
2023-03-26T00:05:33.453Z,10.49
2023-03-26T00:06:40.276Z,10.46
2023-03-26T00:07:43.717Z,10.42
2023-03-26T00:08:54.066Z,10.36
2023-03-26T00:09:58.452Z,10.29
2023-03-26T00:11:01.321Z,10.28
2023-03-26T00:12:04.230Z,10.19
2023-03-26T00:13:08.064Z,10.11
2023-03-26T00:14:21.103Z,9.97
2023-03-26T00:15:23.944Z,9.95
2023-03-26T00:16:32.405Z,9.81
2023-03-26T00:17:35.839Z,9.80
2023-03-26T00:18:39.009Z,9.76
2023-03-26T00:19:48.113Z,9.71
2023-03-26T00:20:50.933Z,9.67
2023-03-26T00:21:54.474Z,9.70
2023-03-26T00:22:57.780Z,9.66
2023-03-26T00:24:05.632Z,9.66
2023-03-26T00:25:15.168Z,9.66
2023-03-26T00:26:18.744Z,9.64
2023-03-26T00:27:21.550Z,9.63
2023-03-26T00:28:25.915Z,9.67
2023-03-26T00:29:29.262Z,9.67
2023-03-26T00:30:38.203Z,9.69
2023-03-26T00:31:42.217Z,9.66
2023-03-26T00:32:45.548Z,9.64
2023-03-26T00:33:56.907Z,9.66
2023-03-26T00:34:59.765Z,9.64
2023-03-26T00:36:09.363Z,9.64
2023-03-26T00:37:13.829Z,9.66
2023-03-26T00:38:16.860Z,9.64
2023-03-26T00:39:19.649Z,9.69
2023-03-26T00:40:24.713Z,9.69
2023-03-26T00:41:34.396Z,9.71
2023-03-26T00:42:37.642Z,9.76
2023-03-26T00:43:40.494Z,9.73
2023-03-26T00:45:05.431Z,9.76
2023-03-26T00:46:15.474Z,9.73
2023-03-26T00:47:18.707Z,9.74
2023-03-26T00:48:34.308Z,9.76
2023-03-26T00:49:41.018Z,9.73
2023-03-26T00:50:45.984Z,9.70
2023-03-26T00:51:55.402Z,9.70
2023-03-26T00:52:58.339Z,9.70
2023-03-26T00:54:01.266Z,9.70
2023-03-26T00:55:04.359Z,9.70
2023-03-26T00:56:08.304Z,9.64
2023-03-26T00:57:28.955Z,9.64
2023-03-26T00:58:38.352Z,9.58
2023-03-26T00:59:42.522Z,9.58
2023-03-26T01:00:52.924Z,9.58
2023-03-26T01:02:03.499Z,9.57
2023-03-26T01:03:08.090Z,9.56
2023-03-26T01:04:25.417Z,9.50
2023-03-26T01:05:37.153Z,9.50
2023-03-26T01:06:43.244Z,9.50
2023-03-26T01:07:52.444Z,9.51
2023-03-26T01:09:01.296Z,9.51
2023-03-26T01:10:04.204Z,9.51
2023-03-26T01:11:17.449Z,9.49
2023-03-26T01:12:25.173Z,9.50
2023-03-26T01:13:34.501Z,9.51
2023-03-26T01:14:37.458Z,9.51
2023-03-26T01:15:40.569Z,9.50
2023-03-26T01:16:47.368Z,9.51
2023-03-26T01:17:53.264Z,9.44
2023-03-26T01:19:06.481Z,9.46
2023-03-26T01:20:20.571Z,9.40
2023-03-26T01:21:29.793Z,9.39
2023-03-26T01:22:32.875Z,9.33
2023-03-26T01:23:59.516Z,9.36
2023-03-26T01:25:02.366Z,9.32
2023-03-26T01:26:37.791Z,9.33
2023-03-26T01:27:47.965Z,9.30
2023-03-26T01:29:02.527Z,9.32
2023-03-26T01:30:25.582Z,9.30
2023-03-26T01:31:38.447Z,9.32
2023-03-26T01:33:03.595Z,9.30
2023-03-26T01:34:21.514Z,9.35
2023-03-26T01:35:36.134Z,9.30
2023-03-26T01:36:58.959Z,9.29
2023-03-26T01:38:11.772Z,9.29
2023-03-26T01:39:57.520Z,9.29
2023-03-26T01:41:16.615Z,9.35
2023-03-26T01:42:32.160Z,9.36
2023-03-26T01:43:57.436Z,9.42
2023-03-26T01:45:48.582Z,9.50
2023-03-26T01:46:53.422Z,9.53
2023-03-26T01:47:57.420Z,9.58
2023-03-26T01:49:00.262Z,9.66
2023-03-26T01:50:03.154Z,9.67
2023-03-26T01:51:13.509Z,9.69
2023-03-26T01:52:21.759Z,9.69
2023-03-26T01:53:24.809Z,9.76
2023-03-26T01:54:31.572Z,9.78
2023-03-26T01:56:03.524Z,9.78
2023-03-26T01:57:25.839Z,9.81
2023-03-26T01:58:53.103Z,9.78
2023-03-26T02:00:14.234Z,9.84
2023-03-26T02:01:24.706Z,9.86
2023-03-26T02:02:39.974Z,9.84
2023-03-26T02:03:50.658Z,9.87
2023-03-26T02:04:59.068Z,9.86
2023-03-26T02:06:48.682Z,9.88
2023-03-26T02:08:13.236Z,9.88
2023-03-26T02:09:23.673Z,9.91
2023-03-26T02:10:32.056Z,9.94
2023-03-26T02:11:36.719Z,9.94
2023-03-26T02:12:46.701Z,9.97
2023-03-26T02:13:49.793Z,9.94
2023-03-26T02:14:52.968Z,9.95
2023-03-26T02:16:07.740Z,9.93
2023-03-26T02:17:12.207Z,9.95
2023-03-26T02:18:21.684Z,9.95
2023-03-26T02:19:25.900Z,9.95
2023-03-26T02:20:31.970Z,9.97
2023-03-26T02:21:35.277Z,9.94
2023-03-26T02:22:42.283Z,9.93
2023-03-26T02:23:54.676Z,9.95
2023-03-26T02:24:57.584Z,9.93
2023-03-26T02:26:00.412Z,9.93
2023-03-26T02:27:03.529Z,9.90
2023-03-26T02:28:06.772Z,9.90
2023-03-26T02:29:16.695Z,9.90
2023-03-26T02:30:28.342Z,9.90
2023-03-26T02:31:31.394Z,9.88
2023-03-26T02:32:34.291Z,9.84
2023-03-26T02:33:37.201Z,9.87
2023-03-26T02:34:47.721Z,9.87
2023-03-26T02:35:50.744Z,9.87
2023-03-26T02:36:53.661Z,9.88
2023-03-26T02:37:56.552Z,9.87
2023-03-26T02:38:59.389Z,9.86
2023-03-26T02:40:09.868Z,9.88
2023-03-26T02:41:12.744Z,9.84
2023-03-26T02:42:17.421Z,9.86
2023-03-26T02:43:20.339Z,9.87
2023-03-26T02:44:23.236Z,9.83
2023-03-26T02:45:38.804Z,9.86
2023-03-26T02:46:41.725Z,9.81
2023-03-26T02:47:44.758Z,9.80
2023-03-26T02:48:47.590Z,9.83
2023-03-26T02:49:50.472Z,9.78
2023-03-26T02:51:01.762Z,9.80
2023-03-26T02:52:07.630Z,9.77
2023-03-26T02:53:11.063Z,9.76
2023-03-26T02:54:13.932Z,9.76
2023-03-26T02:55:17.371Z,9.71
2023-03-26T02:56:26.744Z,9.71
2023-03-26T02:57:30.015Z,9.73
2023-03-26T02:58:33.482Z,9.70
2023-03-26T02:59:36.301Z,9.73
2023-03-26T03:00:39.698Z,9.69
2023-03-26T03:01:51.780Z,9.67
2023-03-26T03:02:55.456Z,9.64
2023-03-26T03:03:58.540Z,9.66
2023-03-26T03:05:02.739Z,9.61
2023-03-26T03:06:05.896Z,9.63
2023-03-26T03:07:15.802Z,9.61
2023-03-26T03:08:19.904Z,9.60
2023-03-26T03:09:22.734Z,9.58
2023-03-26T03:10:29.956Z,9.56
2023-03-26T03:11:32.875Z,9.53
2023-03-26T03:12:42.767Z,9.50
2023-03-26T03:13:46.608Z,9.44
2023-03-26T03:14:49.558Z,9.37
2023-03-26T03:15:52.643Z,9.37
2023-03-26T03:16:55.630Z,9.33
2023-03-26T03:18:04.816Z,9.29
2023-03-26T03:19:07.843Z,9.26
2023-03-26T03:20:10.996Z,9.23
2023-03-26T03:21:13.797Z,9.18
2023-03-26T03:22:16.803Z,9.15
2023-03-26T03:23:25.840Z,9.15
2023-03-26T03:24:28.680Z,9.14
2023-03-26T03:25:31.547Z,9.09
2023-03-26T03:26:35.406Z,9.05
2023-03-26T03:27:40.514Z,9.05
2023-03-26T03:28:49.853Z,9.02
2023-03-26T03:29:54.918Z,8.98
2023-03-26T03:30:58.795Z,8.92
2023-03-26T03:32:01.730Z,8.91
2023-03-26T03:33:04.777Z,8.92
2023-03-26T03:34:13.814Z,8.85
2023-03-26T03:35:17.032Z,8.78
2023-03-26T03:36:25.469Z,8.67
2023-03-26T03:37:28.591Z,8.65
2023-03-26T03:38:31.620Z,8.61
2023-03-26T03:39:40.859Z,8.58
2023-03-26T03:40:44.538Z,8.56
2023-03-26T03:41:47.370Z,8.53
2023-03-26T03:42:50.252Z,8.51
2023-03-26T03:43:53.254Z,8.47
2023-03-26T03:45:02.863Z,8.46
2023-03-26T03:46:12.033Z,8.47
2023-03-26T03:47:21.657Z,8.40
2023-03-26T03:48:24.565Z,8.32
2023-03-26T03:49:27.413Z,8.32
2023-03-26T03:50:36.874Z,8.36
2023-03-26T03:51:39.689Z,8.32
2023-03-26T03:52:42.541Z,8.30
2023-03-26T03:53:47.535Z,8.28
2023-03-26T03:54:56.874Z,8.22
2023-03-26T03:55:59.923Z,8.17
2023-03-26T03:57:03.393Z,8.17
2023-03-26T03:58:07.366Z,8.16
2023-03-26T03:59:10.233Z,8.10
2023-03-26T04:00:21.166Z,8.07
2023-03-26T04:01:24.796Z,8.02
2023-03-26T04:02:31.573Z,8.00
2023-03-26T04:03:40.089Z,7.93
2023-03-26T04:04:43.275Z,7.93
2023-03-26T04:06:02.904Z,7.89
2023-03-26T04:07:06.810Z,7.85
2023-03-26T04:08:09.586Z,7.82
2023-03-26T04:09:12.425Z,7.83
2023-03-26T04:10:16.942Z,7.79
2023-03-26T04:11:25.909Z,7.75
2023-03-26T04:12:29.657Z,7.72
2023-03-26T04:13:32.669Z,7.72
2023-03-26T04:14:35.488Z,7.72
2023-03-26T04:15:38.545Z,7.77
2023-03-26T04:16:47.913Z,7.75
2023-03-26T04:17:50.805Z,7.78
2023-03-26T04:18:53.663Z,7.77
2023-03-26T04:19:56.501Z,7.77
2023-03-26T04:21:03.692Z,7.78
2023-03-26T04:22:12.913Z,7.75
2023-03-26T04:23:19.292Z,7.75
2023-03-26T04:24:23.687Z,7.77
2023-03-26T04:25:31.613Z,7.79
2023-03-26T04:26:34.582Z,7.79
2023-03-26T04:27:44.948Z,7.82
2023-03-26T04:28:56.646Z,7.81
2023-03-26T04:30:02.916Z,7.82
2023-03-26T04:31:06.097Z,7.86
2023-03-26T04:32:15.587Z,7.82
2023-03-26T04:33:24.986Z,7.82
2023-03-26T04:34:27.916Z,7.83
2023-03-26T04:35:37.427Z,7.74
2023-03-26T04:36:42.012Z,7.68
2023-03-26T04:37:53.984Z,7.67
2023-03-26T04:38:59.606Z,7.67
2023-03-26T04:40:10.704Z,7.62
2023-03-26T04:41:20.956Z,7.64
2023-03-26T04:42:24.328Z,7.65
2023-03-26T04:43:27.968Z,7.62
2023-03-26T04:44:31.678Z,7.61
2023-03-26T04:45:41.110Z,7.60
2023-03-26T04:46:52.052Z,7.57
2023-03-26T04:47:54.980Z,7.58
2023-03-26T04:48:58.096Z,7.54
2023-03-26T04:50:00.921Z,7.54
2023-03-26T04:51:03.919Z,7.55
2023-03-26T04:52:13.025Z,7.57
2023-03-26T04:53:18.960Z,7.54
2023-03-26T04:54:25.650Z,7.57
2023-03-26T04:55:38.782Z,7.52
2023-03-26T04:56:44.640Z,7.52
2023-03-26T04:58:01.016Z,7.55
2023-03-26T04:59:04.547Z,7.52
2023-03-26T05:00:16.296Z,7.55
2023-03-26T05:01:19.210Z,7.55
2023-03-26T05:02:29.018Z,7.55
2023-03-26T05:03:33.701Z,7.51
2023-03-26T05:04:38.075Z,7.50
2023-03-26T05:05:42.133Z,7.52
2023-03-26T05:06:45.130Z,7.55
2023-03-26T05:07:54.066Z,7.55
2023-03-26T05:08:57.140Z,7.60
2023-03-26T05:10:00.026Z,7.62
2023-03-26T05:11:02.928Z,7.65
2023-03-26T05:12:06.020Z,7.68
2023-03-26T05:13:15.015Z,7.71
2023-03-26T05:14:18.624Z,7.74
2023-03-26T05:15:21.575Z,7.77
2023-03-26T05:16:25.322Z,7.78
2023-03-26T05:17:32.198Z,7.83
2023-03-26T05:18:42.087Z,7.86
2023-03-26T05:19:44.918Z,7.93
2023-03-26T05:20:47.858Z,7.93
2023-03-26T05:21:50.703Z,7.98
2023-03-26T05:22:53.927Z,7.99
2023-03-26T05:24:03.049Z,7.98
2023-03-26T05:25:06.505Z,7.99
2023-03-26T05:26:10.860Z,8.00
2023-03-26T05:27:18.343Z,8.05
2023-03-26T05:28:25.509Z,8.09
2023-03-26T05:29:35.031Z,8.10
2023-03-26T05:30:38.065Z,8.13
2023-03-26T05:31:40.867Z,8.13
2023-03-26T05:32:44.463Z,8.14
2023-03-26T05:33:47.852Z,8.17
2023-03-26T05:34:57.058Z,8.20
2023-03-26T05:36:16.567Z,8.20
2023-03-26T05:37:21.208Z,8.23
2023-03-26T05:38:24.515Z,8.26
2023-03-26T05:39:35.096Z,8.28
2023-03-26T05:40:38.052Z,8.30
2023-03-26T05:41:41.175Z,8.32
2023-03-26T05:42:51.081Z,8.30
2023-03-26T05:43:53.958Z,8.32
2023-03-26T05:45:17.139Z,8.36
2023-03-26T05:46:21.653Z,8.43
2023-03-26T05:47:24.547Z,8.46
2023-03-26T05:48:34.145Z,8.49
2023-03-26T05:49:37.591Z,8.53
2023-03-26T05:50:40.461Z,8.57
2023-03-26T05:51:43.299Z,8.64
2023-03-26T05:52:46.156Z,8.68
2023-03-26T05:53:55.194Z,8.70
2023-03-26T05:54:58.034Z,8.75
2023-03-26T05:56:03.706Z,8.79
2023-03-26T05:57:06.541Z,8.84
2023-03-26T05:58:09.368Z,8.85
2023-03-26T05:59:19.233Z,8.93
2023-03-26T06:00:23.004Z,9.04
2023-03-26T06:01:26.866Z,9.05
2023-03-26T06:02:30.714Z,9.09
2023-03-26T06:03:35.011Z,9.16
2023-03-26T06:04:48.313Z,9.23
2023-03-26T06:05:51.298Z,9.29
2023-03-26T06:06:55.316Z,9.33
2023-03-26T06:07:58.184Z,9.39
2023-03-26T06:09:08.231Z,9.43
2023-03-26T06:10:11.249Z,9.50
2023-03-26T06:11:21.467Z,9.54
2023-03-26T06:12:24.344Z,9.60
2023-03-26T06:13:27.380Z,9.69
2023-03-26T06:14:36.236Z,9.76
2023-03-26T06:15:39.283Z,9.80
2023-03-26T06:16:42.149Z,9.90
2023-03-26T06:17:45.073Z,9.97
2023-03-26T06:18:48.335Z,10.02
2023-03-26T06:21:09.461Z,10.16
2023-03-26T06:22:12.973Z,10.25
2023-03-26T06:23:15.845Z,10.29
2023-03-26T06:24:20.224Z,10.34
2023-03-26T06:25:29.252Z,10.41
2023-03-26T06:26:32.264Z,10.52
2023-03-26T06:27:35.096Z,10.59
2023-03-26T06:28:37.902Z,10.65
2023-03-26T06:29:40.725Z,10.72
2023-03-26T06:30:50.288Z,10.80
2023-03-26T06:31:53.184Z,10.86
2023-03-26T06:32:56.071Z,10.94
2023-03-26T06:33:58.938Z,11.01
2023-03-26T06:35:01.956Z,11.10
2023-03-26T06:36:11.333Z,11.18
2023-03-26T06:37:14.196Z,11.24
2023-03-26T06:38:17.056Z,11.27
2023-03-26T06:39:21.284Z,11.32
2023-03-26T06:40:24.710Z,11.42
2023-03-26T06:41:34.274Z,11.44
2023-03-26T06:43:09.669Z,11.50
2023-03-26T06:43:59.869Z,11.58
2023-03-26T06:45:23.308Z,11.62
2023-03-26T06:46:33.344Z,11.68
2023-03-26T06:47:36.300Z,11.76
2023-03-26T06:48:39.815Z,11.82
2023-03-26T06:49:44.920Z,11.87
2023-03-26T06:50:48.327Z,11.92
2023-03-26T06:51:58.312Z,11.92
2023-03-26T06:53:02.214Z,11.87
2023-03-26T06:54:05.169Z,11.92
2023-03-26T06:55:09.983Z,11.90
2023-03-26T06:56:12.813Z,11.93
2023-03-26T06:57:22.317Z,11.92
2023-03-26T06:58:31.310Z,11.97
2023-03-26T06:59:34.124Z,12.00
2023-03-26T07:00:36.990Z,12.07
2023-03-26T07:01:40.129Z,12.12
2023-03-26T07:02:43.053Z,12.16
2023-03-26T07:03:52.385Z,12.17
2023-03-26T07:04:55.334Z,12.26
2023-03-26T07:05:58.333Z,12.30
2023-03-26T07:07:01.179Z,12.40
2023-03-26T07:08:04.355Z,12.50
2023-03-26T07:09:14.374Z,12.57
2023-03-26T07:10:17.763Z,12.67
2023-03-26T07:11:22.014Z,12.74
2023-03-26T07:12:24.831Z,12.85
2023-03-26T07:13:27.668Z,12.92
2023-03-26T07:14:38.329Z,13.00
2023-03-26T07:15:41.211Z,13.05
2023-03-26T07:16:44.114Z,13.10
2023-03-26T07:17:47.014Z,13.19
2023-03-26T07:18:49.928Z,13.22
2023-03-26T07:20:01.345Z,13.29
2023-03-26T07:21:04.581Z,13.35
2023-03-26T07:22:07.703Z,13.40
2023-03-26T07:23:12.988Z,13.48
2023-03-26T07:24:16.280Z,13.60
2023-03-26T07:25:26.384Z,13.67
2023-03-26T07:27:09.541Z,13.81
2023-03-26T07:28:38.017Z,13.92
2023-03-26T07:29:48.967Z,14.02
2023-03-26T07:31:11.419Z,14.09
2023-03-26T07:32:35.408Z,14.21
2023-03-26T07:34:05.228Z,14.30
2023-03-26T07:35:36.444Z,14.32
2023-03-26T07:36:46.664Z,14.36
2023-03-26T07:38:05.935Z,14.39
2023-03-26T07:39:28.026Z,14.33
2023-03-26T07:41:20.433Z,14.36
2023-03-26T07:42:26.289Z,14.32
2023-03-26T07:43:59.649Z,14.35
2023-03-26T07:45:58.514Z,14.30
2023-03-26T07:47:06.151Z,14.25
2023-03-26T07:48:21.486Z,14.12
2023-03-26T07:49:24.692Z,14.05
2023-03-26T07:50:27.986Z,14.01
2023-03-26T07:51:37.537Z,13.95
2023-03-26T07:52:40.697Z,13.98
2023-03-26T07:53:43.816Z,14.02
2023-03-26T07:54:49.761Z,13.94
2023-03-26T07:56:35.643Z,13.89
2023-03-26T07:57:46.675Z,13.85
2023-03-26T07:59:27.771Z,13.82
2023-03-26T08:00:42.805Z,13.79
2023-03-26T08:02:29.591Z,13.81
2023-03-26T08:03:47.910Z,13.81
2023-03-26T08:05:27.433Z,13.82
2023-03-26T08:06:45.551Z,13.79
2023-03-26T08:08:15.037Z,13.79
2023-03-26T08:10:02.387Z,13.73
2023-03-26T08:11:19.154Z,13.70
2023-03-26T08:12:47.541Z,13.70
2023-03-26T08:13:58.353Z,13.64
2023-03-26T08:15:32.098Z,13.67
2023-03-26T08:16:55.821Z,13.64
2023-03-26T08:18:08.741Z,13.66
2023-03-26T08:19:32.094Z,13.73
2023-03-26T08:20:45.662Z,13.78
2023-03-26T08:21:56.828Z,13.81
2023-03-26T08:23:20.560Z,13.85
2023-03-26T08:24:34.836Z,13.88
2023-03-26T08:25:51.118Z,13.94
2023-03-26T08:27:03.880Z,13.97
2023-03-26T08:28:24.581Z,14.01
2023-03-26T08:29:43.611Z,14.04
2023-03-26T08:30:48.210Z,14.05
2023-03-26T08:31:51.966Z,14.09
2023-03-26T08:33:21.886Z,14.11
2023-03-26T08:34:31.729Z,14.18
2023-03-26T08:35:36.412Z,14.12
2023-03-26T08:36:39.455Z,14.16
2023-03-26T08:37:42.509Z,14.22
2023-03-26T08:38:46.874Z,14.24
2023-03-26T08:39:56.695Z,14.29
2023-03-26T08:41:18.330Z,14.33
2023-03-26T08:42:23.980Z,14.39
2023-03-26T08:43:26.793Z,14.45
2023-03-26T08:45:03.728Z,14.45
2023-03-26T08:46:29.804Z,14.50
2023-03-26T08:47:50.966Z,14.50
2023-03-26T08:49:12.237Z,14.52
2023-03-26T08:50:47.744Z,14.56
2023-03-26T08:51:56.703Z,14.56
2023-03-26T08:53:27.425Z,14.56
2023-03-26T08:54:55.606Z,14.56
2023-03-26T08:56:38.780Z,14.55
2023-03-26T08:58:05.961Z,14.55
2023-03-26T08:59:27.422Z,14.62
2023-03-26T09:00:45.784Z,14.66
2023-03-26T09:02:22.636Z,14.76
2023-03-26T09:03:44.830Z,14.77
2023-03-26T09:04:59.606Z,14.76
2023-03-26T09:06:42.775Z,14.74
2023-03-26T09:08:10.087Z,14.73
2023-03-26T09:09:34.577Z,14.77
2023-03-26T09:11:04.901Z,14.80
2023-03-26T09:12:26.786Z,14.79
2023-03-26T09:14:06.896Z,14.83
2023-03-26T09:15:24.641Z,14.81
2023-03-26T09:17:11.797Z,14.79
2023-03-26T09:18:44.636Z,14.80
2023-03-26T09:20:24.381Z,14.87
2023-03-26T09:21:45.956Z,14.98
2023-03-26T09:23:15.038Z,15.10
2023-03-26T09:24:55.568Z,15.18
2023-03-26T09:26:20.145Z,15.20
2023-03-26T09:27:35.647Z,15.22
2023-03-26T09:29:06.801Z,15.25
2023-03-26T09:30:42.559Z,15.31
2023-03-26T09:32:03.779Z,15.32
2023-03-26T09:33:27.828Z,15.30
2023-03-26T09:34:40.888Z,15.32
2023-03-26T09:35:53.438Z,15.45
2023-03-26T09:37:14.633Z,15.62
2023-03-26T09:38:49.818Z,15.80
2023-03-26T09:40:06.395Z,15.97
2023-03-26T09:41:33.521Z,16.09
2023-03-26T09:42:42.546Z,16.30
2023-03-26T09:43:54.908Z,16.45
2023-03-26T09:45:18.654Z,16.58
2023-03-26T09:46:59.872Z,16.61
2023-03-26T09:49:02.810Z,16.75
2023-03-26T09:50:44.875Z,16.86
2023-03-26T09:52:09.206Z,16.76
2023-03-26T09:53:27.759Z,16.71
2023-03-26T09:54:36.643Z,16.65
2023-03-26T09:55:51.915Z,16.55
2023-03-26T09:57:30.450Z,16.44
2023-03-26T09:58:45.229Z,16.32
2023-03-26T10:00:15.083Z,16.18
2023-03-26T10:01:24.976Z,16.11
2023-03-26T10:03:08.808Z,15.94
2023-03-26T10:04:30.385Z,15.79
2023-03-26T10:05:53.965Z,15.63
2023-03-26T10:07:16.930Z,15.55
2023-03-26T10:08:32.041Z,15.55
2023-03-26T10:10:05.517Z,15.46
2023-03-26T10:11:14.114Z,15.49
2023-03-26T10:12:35.934Z,15.42
2023-03-26T10:14:06.513Z,15.43
2023-03-26T10:15:36.992Z,15.48
2023-03-26T10:16:49.654Z,15.58
2023-03-26T10:18:27.614Z,15.62
2023-03-26T10:20:12.858Z,15.70
2023-03-26T10:21:30.771Z,15.80
2023-03-26T10:22:57.928Z,15.83
2023-03-26T10:24:50.476Z,15.86
2023-03-26T10:26:17.233Z,15.83
2023-03-26T10:27:40.967Z,15.86
2023-03-26T10:29:16.160Z,15.86
2023-03-26T10:30:46.621Z,15.86
2023-03-26T10:32:13.890Z,15.89
2023-03-26T10:33:40.962Z,15.90
2023-03-26T10:35:07.767Z,15.91
2023-03-26T10:36:16.133Z,15.96
2023-03-26T10:37:18.971Z,15.91
2023-03-26T10:38:51.985Z,15.85
2023-03-26T10:40:04.012Z,15.87
2023-03-26T10:41:25.005Z,15.87
2023-03-26T10:42:51.545Z,15.87
2023-03-26T10:44:18.977Z,15.86
2023-03-26T10:46:03.488Z,15.91
2023-03-26T10:47:33.018Z,15.97
2023-03-26T10:49:21.982Z,16.03
2023-03-26T10:50:55.667Z,15.99
2023-03-26T10:52:03.462Z,15.99
2023-03-26T10:53:15.348Z,15.99
2023-03-26T10:54:48.978Z,15.91
2023-03-26T10:56:03.040Z,15.89
2023-03-26T10:57:21.088Z,15.87
2023-03-26T10:58:27.611Z,15.80
2023-03-26T10:59:31.881Z,15.78
2023-03-26T11:00:48.990Z,15.86
2023-03-26T11:02:04.475Z,15.83
2023-03-26T11:03:30.534Z,15.90
2023-03-26T11:04:36.279Z,16.04
2023-03-26T11:06:05.076Z,16.16
2023-03-26T11:07:46.833Z,16.22
2023-03-26T11:08:59.746Z,16.32
2023-03-26T11:10:51.070Z,16.45
2023-03-26T11:11:56.982Z,16.47
2023-03-26T11:13:15.344Z,16.47
2023-03-26T11:14:35.217Z,16.41
2023-03-26T11:15:53.181Z,16.47
2023-03-26T11:17:40.734Z,16.52
2023-03-26T11:19:21.133Z,16.42
2023-03-26T11:20:33.527Z,16.35
2023-03-26T11:22:16.108Z,16.30
2023-03-26T11:23:37.456Z,16.20
2023-03-26T11:25:05.737Z,16.14
2023-03-26T11:26:23.694Z,16.11
2023-03-26T11:27:53.701Z,16.16
2023-03-26T11:29:31.576Z,16.28
2023-03-26T11:31:01.992Z,16.48
2023-03-26T11:32:20.146Z,16.61
2023-03-26T11:33:38.202Z,16.67
2023-03-26T11:35:40.498Z,16.73
2023-03-26T11:36:54.699Z,16.78
2023-03-26T11:38:11.148Z,16.72
2023-03-26T11:39:22.297Z,16.65
2023-03-26T11:40:32.098Z,16.64
2023-03-26T11:41:36.936Z,16.59
2023-03-26T11:44:23.170Z,16.79
2023-03-26T11:45:31.079Z,16.96
2023-03-26T11:46:45.166Z,17.20
2023-03-26T11:47:53.192Z,17.38
2023-03-26T11:49:14.144Z,17.60
2023-03-26T11:50:23.205Z,17.78
2023-03-26T11:51:32.678Z,17.91
2023-03-26T11:52:35.537Z,18.02
2023-03-26T11:53:55.219Z,18.13
2023-03-26T11:54:59.760Z,18.26
2023-03-26T11:56:07.373Z,18.37
2023-03-26T11:57:19.739Z,18.52
2023-03-26T11:58:26.220Z,18.64
2023-03-26T12:00:15.200Z,18.73
2023-03-26T12:01:31.337Z,18.78
2023-03-26T12:02:42.179Z,18.81
2023-03-26T12:03:56.959Z,18.81
2023-03-26T12:05:26.208Z,18.97
2023-03-26T12:06:30.240Z,19.00
2023-03-26T12:07:35.864Z,18.92
2023-03-26T12:08:42.854Z,18.78
2023-03-26T12:10:18.386Z,18.77
2023-03-26T12:11:29.378Z,18.74
2023-03-26T12:12:40.070Z,18.65
2023-03-26T12:13:47.177Z,18.59
2023-03-26T12:14:50.236Z,18.59
2023-03-26T12:16:05.268Z,18.63
2023-03-26T12:17:32.129Z,18.70
2023-03-26T12:18:35.621Z,18.70
2023-03-26T12:19:47.517Z,18.73
2023-03-26T12:20:57.255Z,18.78
2023-03-26T12:22:00.105Z,18.80
2023-03-26T12:23:06.324Z,18.78
2023-03-26T12:24:30.954Z,18.71
2023-03-26T12:25:46.282Z,18.63
2023-03-26T12:26:51.504Z,18.56
2023-03-26T12:28:14.724Z,18.44
2023-03-26T12:29:20.030Z,18.37
2023-03-26T12:30:24.620Z,18.23
2023-03-26T12:31:34.369Z,18.16
2023-03-26T12:32:46.748Z,18.04
2023-03-26T12:34:08.870Z,18.05
2023-03-26T12:35:28.440Z,17.98
2023-03-26T12:36:41.272Z,17.92
2023-03-26T12:37:45.805Z,17.92
2023-03-26T12:39:43.646Z,17.98
2023-03-26T12:40:23.427Z,18.04
2023-03-26T12:43:40.240Z,18.09
2023-03-26T12:44:54.131Z,18.09
2023-03-26T12:44:58.821Z,18.05
2023-03-26T12:47:54.921Z,18.04
2023-03-26T12:48:00.711Z,18.01
2023-03-26T12:49:09.983Z,18.04
2023-03-26T12:50:17.119Z,18.04
2023-03-26T12:51:45.720Z,18.06
2023-03-26T12:53:10.449Z,18.02
2023-03-26T12:54:19.467Z,17.98
2023-03-26T12:55:31.386Z,17.98
2023-03-26T12:57:12.217Z,17.99
2023-03-26T12:58:55.484Z,18.02
2023-03-26T13:00:07.848Z,18.16
2023-03-26T13:01:27.636Z,18.26
2023-03-26T13:02:48.476Z,18.40
2023-03-26T13:04:31.434Z,18.56
2023-03-26T13:05:41.175Z,18.61
2023-03-26T13:07:00.328Z,18.63
2023-03-26T13:08:41.484Z,18.63
2023-03-26T13:09:51.736Z,18.65
2023-03-26T13:11:40.003Z,18.68
2023-03-26T13:12:47.675Z,18.67
2023-03-26T13:14:22.527Z,18.59
2023-03-26T13:15:36.935Z,18.56
2023-03-26T13:16:50.586Z,18.53
2023-03-26T13:18:31.556Z,18.46
2023-03-26T13:19:48.471Z,18.47
2023-03-26T13:21:09.475Z,18.50
2023-03-26T13:22:38.496Z,18.53
2023-03-26T13:24:08.312Z,18.60
2023-03-26T13:25:32.509Z,18.67
2023-03-26T13:26:56.655Z,18.71
2023-03-26T13:28:16.641Z,18.74
2023-03-26T13:29:45.164Z,18.74
2023-03-26T13:31:12.623Z,18.70
2023-03-26T13:32:28.234Z,18.64
2023-03-26T13:33:49.781Z,18.57
2023-03-26T13:35:01.505Z,18.52
2023-03-26T13:36:48.585Z,18.50
2023-03-26T13:38:02.344Z,18.50
2023-03-26T13:39:09.308Z,18.54
2023-03-26T13:40:18.309Z,18.57
2023-03-26T13:42:00.548Z,18.57
2023-03-26T13:43:09.429Z,18.60
2023-03-26T13:44:46.236Z,18.61
2023-03-26T13:46:19.593Z,18.65
2023-03-26T13:47:34.691Z,18.64
2023-03-26T13:48:49.284Z,18.65
2023-03-26T13:50:07.505Z,18.65
2023-03-26T13:51:58.527Z,18.67
2023-03-26T13:53:07.759Z,18.70
2023-03-26T13:54:18.940Z,18.67
2023-03-26T13:55:21.857Z,18.67
2023-03-26T13:56:38.688Z,18.67
2023-03-26T13:57:51.545Z,18.63
2023-03-26T13:59:01.689Z,18.65
2023-03-26T14:00:18.533Z,18.63
2023-03-26T14:01:51.617Z,18.65
2023-03-26T14:03:09.414Z,18.68
2023-03-26T14:04:34.599Z,18.67
2023-03-26T14:05:46.846Z,18.73
2023-03-26T14:07:20.597Z,18.74
2023-03-26T14:08:32.730Z,18.74
2023-03-26T14:09:42.160Z,18.74
2023-03-26T14:11:12.565Z,18.70
2023-03-26T14:12:30.634Z,18.68
2023-03-26T14:14:07.483Z,18.61
2023-03-26T14:15:20.835Z,18.65
2023-03-26T14:16:37.694Z,18.60
2023-03-26T14:18:04.681Z,18.61
2023-03-26T14:19:20.168Z,18.65
2023-03-26T14:20:29.441Z,18.68
2023-03-26T14:21:53.472Z,18.73
2023-03-26T14:23:02.615Z,18.73
2023-03-26T14:24:36.768Z,18.81
2023-03-26T14:26:17.055Z,18.83
2023-03-26T14:27:23.334Z,18.78
2023-03-26T14:28:41.625Z,18.75
2023-03-26T14:30:05.663Z,18.77
2023-03-26T14:31:24.407Z,18.71
2023-03-26T14:32:48.720Z,18.70
2023-03-26T14:34:06.207Z,18.70
2023-03-26T14:35:27.443Z,18.64
2023-03-26T14:36:48.063Z,18.65
2023-03-26T14:38:37.664Z,18.64
2023-03-26T14:40:19.475Z,18.68
2023-03-26T14:41:57.672Z,18.70
2023-03-26T14:43:36.698Z,18.71
2023-03-26T14:44:57.714Z,18.71
2023-03-26T14:46:17.068Z,18.64
2023-03-26T14:47:26.589Z,18.64
2023-03-26T14:48:35.378Z,18.61
2023-03-26T14:50:03.672Z,18.61
2023-03-26T14:51:10.221Z,18.56
2023-03-26T14:52:28.615Z,18.47
2023-03-26T14:53:36.194Z,18.44
2023-03-26T14:54:44.105Z,18.46
2023-03-26T14:56:02.793Z,18.42
2023-03-26T14:57:23.959Z,18.37
2023-03-26T14:58:54.441Z,18.32
2023-03-26T15:00:40.791Z,18.26
2023-03-26T15:02:11.268Z,18.23
2023-03-26T15:03:14.188Z,18.25
2023-03-26T15:04:28.758Z,18.26
2023-03-26T15:05:34.295Z,18.29
2023-03-26T15:06:58.780Z,18.30
2023-03-26T15:08:17.849Z,18.33
2023-03-26T15:09:32.910Z,18.26
2023-03-26T15:11:18.821Z,18.30
2023-03-26T15:12:53.134Z,18.25
2023-03-26T15:14:32.957Z,18.26
2023-03-26T15:15:38.645Z,18.23
2023-03-26T15:17:16.828Z,18.21
2023-03-26T15:18:56.820Z,18.22
2023-03-26T15:20:36.188Z,18.22
2023-03-26T15:22:26.139Z,18.26
2023-03-26T15:23:58.729Z,18.30
2023-03-26T15:25:10.281Z,18.29
2023-03-26T15:26:38.370Z,18.25
2023-03-26T15:28:22.852Z,18.21
2023-03-26T15:29:49.901Z,18.19
2023-03-26T15:31:12.487Z,18.17
2023-03-26T15:32:31.496Z,18.13
2023-03-26T15:33:51.847Z,18.10
2023-03-26T15:35:16.487Z,18.09
2023-03-26T15:36:29.498Z,18.09
2023-03-26T15:38:06.582Z,18.08
2023-03-26T15:39:39.857Z,18.02
2023-03-26T15:40:48.726Z,17.99
2023-03-26T15:42:24.641Z,17.95
2023-03-26T15:44:24.098Z,17.91
2023-03-26T15:45:46.489Z,17.79
2023-03-26T15:47:05.953Z,17.82
2023-03-26T15:48:15.219Z,17.75
2023-03-26T15:49:29.882Z,17.68
2023-03-26T15:50:57.023Z,17.67
2023-03-26T15:52:00.056Z,17.70
2023-03-26T15:53:03.424Z,17.67
2023-03-26T15:54:06.545Z,17.65
2023-03-26T15:55:24.876Z,17.65
2023-03-26T15:57:09.152Z,17.58
2023-03-26T15:59:13.072Z,17.64
2023-03-26T16:00:36.923Z,17.60
2023-03-26T16:01:52.871Z,17.60
2023-03-26T16:03:40.952Z,17.57
2023-03-26T16:05:04.962Z,17.50
2023-03-26T16:06:42.831Z,17.50
2023-03-26T16:08:04.329Z,17.47
2023-03-26T16:09:48.935Z,17.40
2023-03-26T16:11:03.951Z,17.36
2023-03-26T16:12:13.115Z,17.34
2023-03-26T16:13:41.055Z,17.31
2023-03-26T16:14:48.940Z,17.27